FQQL

Quelimane Airport

Quelimane, Mozambique
METAR FQQL 210900Z 25004KT 170V330 9999 BKN020 29/21 Q1015
Observed Flight Rules
Apr-21 @ 09:00 UTC (45 minutes ago) Marginal Visual Flight Rules
Wind Visibility Clouds
250° at 4 knots 10,000+ meters
  • Broken at 2,000' AGL
Temperatures Readings
Current 29°C / 84°F
Dewpoint 21°C / 70°F
Humidity 62%
Altimeter 29.97" Hg
Pressure 1015 hPa
Elevation 16
METAR FQQL 210900Z 25004KT 170V330 9999 BKN020 29/21 Q1015
Observed Flight Rules
Apr-21 @ 09:00 UTC
(45 minutes ago)
MVFR
Wind Visibility
250° at 4 knots 10,000+ meters
Clouds
  • Broken at 2,000' AGL
Temperature Dewpoint
29°C / 84°F 21°C / 70°F
Humidity Altimeter Pressure
62% 29.97" Hg 1015 hPa